createdAt,value
2022-11-17T00:01:17.200Z,75665.41
2022-11-17T00:03:43.748Z,75665.41
2022-11-17T00:06:10.271Z,75669.25
2022-11-17T00:08:36.806Z,75661.56
2022-11-17T00:11:03.786Z,75665.41
2022-11-17T00:13:48.771Z,75663.47
2022-11-17T00:16:16.325Z,75665.41
2022-11-17T00:19:01.248Z,75667.31
2022-11-17T00:21:28.913Z,75665.41
2022-11-17T00:23:55.616Z,75665.41
2022-11-17T00:26:23.509Z,75661.56
2022-11-17T00:28:57.564Z,75650.00
2022-11-17T00:31:43.943Z,75640.34
2022-11-17T00:34:15.314Z,75638.44
2022-11-17T00:36:46.528Z,75634.56
2022-11-17T00:39:13.653Z,75634.56
2022-11-17T00:41:40.363Z,75634.56
2022-11-17T00:44:07.244Z,75636.50
2022-11-17T00:46:34.459Z,75638.44
2022-11-17T00:49:00.957Z,75642.28
2022-11-17T00:51:27.701Z,75642.28
2022-11-17T00:53:54.243Z,75650.00
2022-11-17T00:56:20.715Z,75651.91
2022-11-17T00:58:47.524Z,75650.00
2022-11-17T01:01:14.413Z,75644.22
2022-11-17T01:03:41.259Z,75642.28
2022-11-17T01:06:09.704Z,75642.28
2022-11-17T01:08:36.219Z,75638.44
2022-11-17T01:11:10.187Z,75638.44
2022-11-17T01:13:38.092Z,75636.50
2022-11-17T01:16:06.399Z,75624.94
2022-11-17T01:18:33.095Z,75615.31
2022-11-17T01:21:09.844Z,75624.94
2022-11-17T01:23:37.397Z,75626.88
2022-11-17T01:26:08.932Z,75628.78
2022-11-17T01:28:36.081Z,75626.88
2022-11-17T01:31:03.873Z,75623.03
2022-11-17T01:33:32.783Z,75619.16
2022-11-17T01:36:04.457Z,75609.53
2022-11-17T01:38:31.827Z,75607.59
2022-11-17T01:40:59.572Z,75607.59
2022-11-17T01:43:55.238Z,75597.97
2022-11-17T01:46:31.038Z,75588.34
2022-11-17T01:49:20.651Z,75580.63
2022-11-17T01:51:50.507Z,75578.72
2022-11-17T01:54:20.825Z,75580.63
2022-11-17T01:56:50.169Z,75580.63
2022-11-17T01:59:21.616Z,75576.78
2022-11-17T02:01:57.200Z,75572.94
2022-11-17T02:04:33.307Z,75578.72
2022-11-17T02:07:03.462Z,75588.34
2022-11-17T02:09:30.062Z,75576.78
2022-11-17T02:11:58.040Z,75578.72
2022-11-17T02:14:24.612Z,75576.78
2022-11-17T02:16:51.416Z,75574.84
2022-11-17T02:19:19.496Z,75578.72
2022-11-17T02:22:01.262Z,75567.16
2022-11-17T02:24:33.658Z,75569.06
2022-11-17T02:27:19.047Z,75569.06
2022-11-17T02:29:48.383Z,75574.84
2022-11-17T02:32:24.251Z,75576.78
2022-11-17T02:34:57.804Z,75576.78
2022-11-17T02:37:24.261Z,75578.72
2022-11-17T02:40:02.764Z,75578.72
2022-11-17T02:43:00.349Z,75584.50
2022-11-17T02:45:39.321Z,75576.78
2022-11-17T02:48:10.397Z,75572.94
2022-11-17T02:50:38.453Z,75571.00
2022-11-17T02:53:05.220Z,75571.00
2022-11-17T02:55:34.277Z,75572.94
2022-11-17T02:58:00.783Z,75569.06
2022-11-17T03:00:28.215Z,75572.94
2022-11-17T03:03:03.761Z,75569.06
2022-11-17T03:05:43.331Z,75569.06
2022-11-17T03:08:34.054Z,75569.06
2022-11-17T03:11:02.814Z,75569.06
2022-11-17T03:13:39.492Z,75569.06
2022-11-17T03:16:24.836Z,75576.78
2022-11-17T03:18:57.374Z,75580.63
2022-11-17T03:21:29.967Z,75578.72
2022-11-17T03:24:04.207Z,75576.78
2022-11-17T03:26:35.999Z,75576.78
2022-11-17T03:29:04.836Z,75576.78
2022-11-17T03:31:32.402Z,75572.94
2022-11-17T03:33:59.685Z,75565.22
2022-11-17T03:36:29.963Z,75569.06
2022-11-17T03:39:12.176Z,75569.06
2022-11-17T03:41:42.262Z,75569.06
2022-11-17T03:44:09.241Z,75565.22
2022-11-17T03:46:38.159Z,75576.78
2022-11-17T03:49:04.643Z,75571.00
2022-11-17T03:51:33.183Z,75580.63
2022-11-17T03:54:00.400Z,75578.72
2022-11-17T03:56:39.174Z,75576.78
2022-11-17T03:59:08.627Z,75576.78
2022-11-17T04:01:35.519Z,75572.94
2022-11-17T04:04:02.150Z,75569.06
2022-11-17T04:06:28.778Z,75569.06
2022-11-17T04:08:55.308Z,75569.06
2022-11-17T04:11:40.702Z,75572.94
2022-11-17T04:14:25.863Z,75578.72
2022-11-17T04:16:52.434Z,75576.78
2022-11-17T04:19:18.934Z,75580.63
2022-11-17T04:21:45.414Z,75584.50
2022-11-17T04:24:11.949Z,75574.84
2022-11-17T04:26:57.034Z,75572.94
2022-11-17T04:29:23.567Z,75576.78
2022-11-17T04:31:50.535Z,75578.72
2022-11-17T04:34:17.013Z,75580.63
2022-11-17T04:36:43.521Z,75576.78
2022-11-17T04:39:10.707Z,75576.78
2022-11-17T04:41:57.258Z,75578.72
2022-11-17T04:44:25.367Z,75586.41
2022-11-17T04:46:52.324Z,75584.50
2022-11-17T04:49:19.531Z,75584.50
2022-11-17T04:51:46.347Z,75584.50
2022-11-17T04:54:13.806Z,75580.63
2022-11-17T04:56:40.641Z,75580.63
2022-11-17T04:59:07.468Z,75574.84
2022-11-17T05:01:34.368Z,75572.94
2022-11-17T05:04:02.094Z,75569.06
2022-11-17T05:06:29.760Z,75572.94
2022-11-17T05:08:56.780Z,75576.78
2022-11-17T05:11:45.449Z,75576.78
2022-11-17T05:14:12.926Z,75576.78
2022-11-17T05:16:58.006Z,75580.63
2022-11-17T05:19:26.461Z,75582.56
2022-11-17T05:21:53.224Z,75576.78
2022-11-17T05:24:19.842Z,75580.63
2022-11-17T05:26:47.040Z,75584.50
2022-11-17T05:29:15.236Z,75586.41
2022-11-17T05:31:41.913Z,75584.50
2022-11-17T05:34:09.365Z,75580.63
2022-11-17T05:36:35.894Z,75580.63
2022-11-17T05:39:02.952Z,75580.63
2022-11-17T05:41:29.565Z,75580.63
2022-11-17T05:43:56.787Z,75590.28
2022-11-17T05:46:23.695Z,75576.78
2022-11-17T05:48:50.707Z,75590.28
2022-11-17T05:51:18.391Z,75584.50
2022-11-17T05:53:44.997Z,75590.28
2022-11-17T05:56:30.385Z,75592.19
2022-11-17T05:59:15.101Z,75596.03
2022-11-17T06:01:44.065Z,75597.97
2022-11-17T06:04:11.190Z,75592.19
2022-11-17T06:06:37.751Z,75597.97
2022-11-17T06:09:04.726Z,75596.03
2022-11-17T06:11:31.305Z,75605.69
2022-11-17T06:13:57.810Z,75603.75
2022-11-17T06:16:27.388Z,75601.81
2022-11-17T06:18:56.140Z,75611.47
2022-11-17T06:21:22.794Z,75613.38
2022-11-17T06:23:50.488Z,75615.31
2022-11-17T06:26:17.186Z,75611.47
2022-11-17T06:28:45.071Z,75603.75
2022-11-17T06:31:12.030Z,75615.31
2022-11-17T06:33:38.998Z,75624.94
2022-11-17T06:36:07.044Z,75626.88
2022-11-17T06:38:35.813Z,75626.88
2022-11-17T06:41:07.394Z,75623.03
2022-11-17T06:43:37.404Z,75626.88
2022-11-17T06:46:04.788Z,75634.56
2022-11-17T06:48:35.435Z,75638.44
2022-11-17T06:51:03.692Z,75626.88
2022-11-17T06:53:30.595Z,75621.09
2022-11-17T06:56:17.199Z,75613.38
2022-11-17T06:58:43.842Z,75621.09
2022-11-17T07:01:11.891Z,75619.16
2022-11-17T07:03:39.369Z,75615.31
2022-11-17T07:06:07.007Z,75615.31
2022-11-17T07:08:34.459Z,75611.47
2022-11-17T07:11:05.291Z,75603.75
2022-11-17T07:13:32.554Z,75607.59
2022-11-17T07:16:10.041Z,75596.03
2022-11-17T07:18:37.862Z,75592.19
2022-11-17T07:21:05.905Z,75603.75
2022-11-17T07:23:33.173Z,75605.69
2022-11-17T07:26:00.060Z,75592.19
2022-11-17T07:28:26.815Z,75584.50
2022-11-17T07:30:53.672Z,75584.50
2022-11-17T07:33:20.289Z,75576.78
2022-11-17T07:35:46.960Z,75574.84
2022-11-17T07:38:13.683Z,75572.94
2022-11-17T07:40:40.759Z,75567.16
2022-11-17T07:43:07.306Z,75580.63
2022-11-17T07:45:35.719Z,75576.78
2022-11-17T07:48:03.184Z,75576.78
2022-11-17T07:50:30.166Z,75557.53
2022-11-17T07:52:57.183Z,75549.81
2022-11-17T07:55:24.521Z,75545.97
2022-11-17T07:57:54.989Z,75544.03
2022-11-17T08:00:21.597Z,75532.47
2022-11-17T08:02:48.161Z,75542.09
2022-11-17T08:05:17.366Z,75545.97
2022-11-17T08:07:47.033Z,75549.81
2022-11-17T08:10:13.924Z,75584.50
2022-11-17T08:12:40.541Z,75559.44
2022-11-17T08:15:07.636Z,75580.63
2022-11-17T08:17:34.202Z,75576.78
2022-11-17T08:20:00.812Z,75584.50
2022-11-17T08:22:27.406Z,75597.97
2022-11-17T08:24:54.055Z,75615.31
2022-11-17T08:27:20.658Z,75603.75
2022-11-17T08:29:47.176Z,75597.97
2022-11-17T08:32:13.716Z,75603.75
2022-11-17T08:34:40.263Z,75569.06
2022-11-17T08:37:06.858Z,75555.59
2022-11-17T08:39:33.451Z,75557.53
2022-11-17T08:42:00.082Z,75555.59
2022-11-17T08:44:26.730Z,75530.56
2022-11-17T08:46:53.255Z,75515.13
2022-11-17T08:49:19.783Z,75524.78
2022-11-17T08:51:46.409Z,75503.59
2022-11-17T08:54:12.979Z,75493.94
2022-11-17T08:56:39.712Z,75470.81
2022-11-17T08:59:06.307Z,75488.16
2022-11-17T09:01:32.938Z,75472.75
2022-11-17T09:03:59.578Z,75486.25
2022-11-17T09:06:26.447Z,75497.81
2022-11-17T09:08:53.720Z,75519.00
2022-11-17T09:11:20.838Z,75538.25
2022-11-17T09:13:47.569Z,75534.41
2022-11-17T09:16:15.024Z,75522.84
2022-11-17T09:18:41.807Z,75545.97
2022-11-17T09:21:09.939Z,75542.09
2022-11-17T09:23:37.002Z,75545.97
2022-11-17T09:26:06.114Z,75522.84
2022-11-17T09:28:33.461Z,75503.59
2022-11-17T09:31:01.478Z,75503.59
2022-11-17T09:33:28.244Z,75476.59
2022-11-17T09:35:56.869Z,75480.47
2022-11-17T09:38:23.397Z,75478.53
2022-11-17T09:40:50.107Z,75461.19
2022-11-17T09:43:24.124Z,75426.53
2022-11-17T09:45:52.286Z,75441.94
2022-11-17T09:48:41.166Z,75465.06
2022-11-17T09:51:09.945Z,75414.97
2022-11-17T09:53:40.683Z,75426.53
2022-11-17T09:56:09.099Z,75432.31
2022-11-17T09:58:46.727Z,75447.72
2022-11-17T10:01:14.594Z,75441.94
2022-11-17T10:03:45.994Z,75461.19
2022-11-17T10:06:18.241Z,75490.09
2022-11-17T10:08:53.988Z,75497.81
2022-11-17T10:11:32.741Z,75486.25
2022-11-17T10:14:08.066Z,75480.47
2022-11-17T10:16:36.195Z,75484.31
2022-11-17T10:19:13.516Z,75503.59
2022-11-17T10:21:40.282Z,75493.94
2022-11-17T10:24:07.592Z,75515.13
2022-11-17T10:26:47.456Z,75503.59
2022-11-17T10:29:15.752Z,75493.94
2022-11-17T10:31:45.884Z,75482.38
2022-11-17T10:34:31.943Z,75476.59
2022-11-17T10:37:20.984Z,75468.91
2022-11-17T10:39:47.490Z,75449.63
2022-11-17T10:42:14.148Z,75430.38
2022-11-17T10:44:42.053Z,75414.97
2022-11-17T10:47:23.995Z,75413.03
2022-11-17T10:50:04.962Z,75405.34
2022-11-17T10:52:31.588Z,75391.84
2022-11-17T10:55:17.333Z,75418.81
2022-11-17T10:57:47.598Z,75403.41
2022-11-17T11:00:34.865Z,75393.78
2022-11-17T11:03:17.410Z,75380.28
2022-11-17T11:06:04.586Z,75364.88
2022-11-17T11:08:34.919Z,75384.13
2022-11-17T11:11:02.879Z,75353.31
2022-11-17T11:13:35.959Z,75370.66
2022-11-17T11:16:02.644Z,75376.44
2022-11-17T11:18:30.325Z,75362.94
2022-11-17T11:21:09.857Z,75384.13
2022-11-17T11:23:59.836Z,75355.25
2022-11-17T11:26:33.109Z,75380.28
2022-11-17T11:29:04.275Z,75349.47
2022-11-17T11:31:30.853Z,75364.88
2022-11-17T11:34:00.102Z,75368.72
2022-11-17T11:36:27.526Z,75362.94
2022-11-17T11:38:59.641Z,75372.59
2022-11-17T11:41:51.973Z,75382.22
2022-11-17T11:44:21.568Z,75370.66
2022-11-17T11:46:50.928Z,75376.44
2022-11-17T11:49:36.013Z,75372.59
2022-11-17T11:52:04.577Z,75380.28
2022-11-17T11:54:37.171Z,75389.91
2022-11-17T11:57:09.976Z,75414.97
2022-11-17T11:59:42.944Z,75401.47
2022-11-17T12:02:12.651Z,75414.97
2022-11-17T12:05:00.313Z,75438.09
2022-11-17T12:07:33.008Z,75438.09
2022-11-17T12:10:18.252Z,75453.50
2022-11-17T12:12:45.615Z,75461.19
2022-11-17T12:15:12.722Z,75480.47
2022-11-17T12:17:54.566Z,75495.88
2022-11-17T12:20:40.730Z,75507.44
2022-11-17T12:23:25.477Z,75515.13
2022-11-17T12:25:54.435Z,75513.22
2022-11-17T12:28:30.354Z,75499.72
2022-11-17T12:31:05.069Z,75517.06
2022-11-17T12:33:53.362Z,75499.72
2022-11-17T12:36:30.961Z,75515.13
2022-11-17T12:39:17.939Z,75519.00
2022-11-17T12:41:47.303Z,75511.28
2022-11-17T12:44:32.360Z,75503.59
2022-11-17T12:47:09.968Z,75495.88
2022-11-17T12:49:46.016Z,75492.03
2022-11-17T12:52:16.962Z,75499.72
2022-11-17T12:54:56.211Z,75480.47
2022-11-17T12:57:30.330Z,75490.09
2022-11-17T13:00:05.909Z,75507.44
2022-11-17T13:02:57.393Z,75499.72
2022-11-17T13:05:25.554Z,75495.88
2022-11-17T13:08:10.660Z,75513.22
2022-11-17T13:10:37.255Z,75501.66
2022-11-17T13:13:20.209Z,75511.28
2022-11-17T13:15:51.267Z,75503.59
2022-11-17T13:18:23.636Z,75499.72
2022-11-17T13:20:50.186Z,75503.59
2022-11-17T13:23:27.272Z,75476.59
2022-11-17T13:26:10.868Z,75480.47
2022-11-17T13:28:37.993Z,75480.47
2022-11-17T13:31:04.521Z,75468.91
2022-11-17T13:33:38.414Z,75470.81
2022-11-17T13:36:09.783Z,75486.25
2022-11-17T13:38:36.359Z,75486.25
2022-11-17T13:41:03.957Z,75495.88
2022-11-17T13:43:36.560Z,75507.44
2022-11-17T13:46:06.260Z,75503.59
2022-11-17T13:48:43.020Z,75517.06
2022-11-17T13:51:28.519Z,75524.78
2022-11-17T13:54:06.929Z,75538.25
2022-11-17T13:56:39.271Z,75540.19
2022-11-17T13:59:17.319Z,75544.03
2022-11-17T14:01:44.510Z,75559.44
2022-11-17T14:04:20.361Z,75576.78
2022-11-17T14:06:54.441Z,75565.22
2022-11-17T14:09:21.415Z,75572.94
2022-11-17T14:11:48.391Z,75557.53
2022-11-17T14:14:18.581Z,75574.84
2022-11-17T14:16:45.505Z,75599.91
2022-11-17T14:19:15.165Z,75605.69
2022-11-17T14:21:57.933Z,75615.31
2022-11-17T14:24:24.561Z,75623.03
2022-11-17T14:26:51.159Z,75621.09
2022-11-17T14:29:20.217Z,75646.13
2022-11-17T14:31:46.790Z,75650.00
2022-11-17T14:34:13.915Z,75655.78
2022-11-17T14:36:41.099Z,75667.31
2022-11-17T14:39:15.756Z,75680.81
2022-11-17T14:41:46.271Z,75684.66
2022-11-17T14:44:13.086Z,75690.44
2022-11-17T14:46:39.789Z,75684.66
2022-11-17T14:49:06.356Z,75688.53
2022-11-17T14:51:33.313Z,75692.38
2022-11-17T14:53:59.860Z,75700.09
2022-11-17T14:56:26.703Z,75707.78
2022-11-17T14:58:55.135Z,75711.63
2022-11-17T15:01:28.375Z,75719.34
2022-11-17T15:03:55.964Z,75730.91
2022-11-17T15:06:26.564Z,75730.91
2022-11-17T15:08:57.676Z,75727.06
2022-11-17T15:11:27.534Z,75727.06
2022-11-17T15:13:54.065Z,75738.63
2022-11-17T15:16:20.922Z,75750.16
2022-11-17T15:18:48.190Z,75750.16
2022-11-17T15:21:16.037Z,75744.38
2022-11-17T15:23:43.303Z,75755.94
2022-11-17T15:26:14.237Z,75755.94
2022-11-17T15:28:41.295Z,75757.88
2022-11-17T15:31:12.310Z,75750.16
2022-11-17T15:33:40.707Z,75759.81
2022-11-17T15:36:08.954Z,75773.28
2022-11-17T15:38:36.268Z,75777.13
2022-11-17T15:41:02.927Z,75777.13
2022-11-17T15:43:30.398Z,75781.00
2022-11-17T15:46:00.432Z,75784.84
2022-11-17T15:48:27.116Z,75784.84
2022-11-17T15:50:57.454Z,75788.69
2022-11-17T15:53:24.030Z,75796.41
2022-11-17T15:55:50.538Z,75806.03
2022-11-17T15:58:17.105Z,75823.38
2022-11-17T16:00:43.709Z,75829.16
2022-11-17T16:03:10.243Z,75821.44
2022-11-17T16:05:36.805Z,75806.03
2022-11-17T16:08:03.445Z,75804.13
2022-11-17T16:10:29.995Z,75807.97
2022-11-17T16:12:56.690Z,75802.19
2022-11-17T16:15:23.400Z,75800.25
2022-11-17T16:17:49.915Z,75807.97
2022-11-17T16:20:18.515Z,75802.19
2022-11-17T16:22:45.165Z,75796.41
2022-11-17T16:25:11.672Z,75800.25
2022-11-17T16:27:38.468Z,75815.69
2022-11-17T16:30:05.168Z,75817.59
2022-11-17T16:32:31.716Z,75819.53
2022-11-17T16:34:58.210Z,75815.69
2022-11-17T16:37:24.852Z,75811.81
2022-11-17T16:39:51.461Z,75807.97
2022-11-17T16:42:18.013Z,75809.91
2022-11-17T16:44:44.595Z,75815.69
2022-11-17T16:47:11.124Z,75827.22
2022-11-17T16:49:37.669Z,75840.72
2022-11-17T16:52:04.233Z,75842.66
2022-11-17T16:54:30.840Z,75842.66
2022-11-17T16:56:57.475Z,75854.22
2022-11-17T16:59:23.983Z,75871.53
2022-11-17T17:01:50.572Z,75861.91
2022-11-17T17:04:17.105Z,75838.78
2022-11-17T17:06:44.413Z,75827.22
2022-11-17T17:09:12.189Z,75827.22
2022-11-17T17:11:39.158Z,75827.22
2022-11-17T17:14:08.305Z,75823.38
2022-11-17T17:16:35.902Z,75823.38
2022-11-17T17:19:04.386Z,75854.22
2022-11-17T17:21:31.420Z,75873.47
2022-11-17T17:23:58.075Z,75877.31
2022-11-17T17:26:29.126Z,75875.41
2022-11-17T17:28:56.920Z,75867.69
2022-11-17T17:31:24.487Z,75865.75
2022-11-17T17:33:51.467Z,75892.75
2022-11-17T17:36:19.457Z,75898.53
2022-11-17T17:38:51.618Z,75888.88
2022-11-17T17:41:20.404Z,75915.84
2022-11-17T17:43:47.469Z,75904.28
2022-11-17T17:46:15.837Z,75904.28
2022-11-17T17:48:43.484Z,75900.44
2022-11-17T17:51:11.283Z,75892.75
2022-11-17T17:53:38.091Z,75896.59
2022-11-17T17:56:06.508Z,75906.22
2022-11-17T17:58:40.573Z,75908.16
2022-11-17T18:01:10.537Z,75923.56
2022-11-17T18:03:37.913Z,75935.13
2022-11-17T18:06:04.527Z,75942.84
2022-11-17T18:08:35.558Z,75938.97
2022-11-17T18:11:02.970Z,75938.97
2022-11-17T18:13:34.779Z,75942.84
2022-11-17T18:16:14.696Z,75942.84
2022-11-17T18:18:41.828Z,75944.75
2022-11-17T18:21:09.572Z,75948.63
2022-11-17T18:23:36.542Z,75954.38
2022-11-17T18:26:09.772Z,75958.25
2022-11-17T18:28:37.244Z,75954.38
2022-11-17T18:31:04.693Z,75946.69
2022-11-17T18:33:31.275Z,75956.31
2022-11-17T18:36:02.551Z,75969.81
2022-11-17T18:38:29.107Z,75967.88
2022-11-17T18:41:02.660Z,75967.88
2022-11-17T18:43:29.928Z,75985.22
2022-11-17T18:46:00.287Z,75977.50
2022-11-17T18:48:26.830Z,75979.44
2022-11-17T18:51:18.273Z,75987.16
2022-11-17T18:53:40.269Z,75987.16
2022-11-17T18:56:11.614Z,75992.94
2022-11-17T18:58:38.822Z,75991.00
2022-11-17T19:01:07.282Z,75996.78
2022-11-17T19:03:34.452Z,75996.78
2022-11-17T19:06:01.293Z,75996.78
2022-11-17T19:08:28.869Z,76006.41
2022-11-17T19:10:55.546Z,76004.47
2022-11-17T19:13:22.953Z,76008.34
2022-11-17T19:15:49.991Z,76014.13
2022-11-17T19:18:16.778Z,76019.91
2022-11-17T19:20:43.788Z,76017.97
2022-11-17T19:23:10.522Z,76014.13
2022-11-17T19:25:38.248Z,76019.91
2022-11-17T19:28:08.098Z,76027.59
2022-11-17T19:30:34.892Z,76027.59
2022-11-17T19:33:01.512Z,76027.59
2022-11-17T19:35:28.267Z,76039.16
2022-11-17T19:37:58.324Z,76050.72
2022-11-17T19:40:24.875Z,76060.38
2022-11-17T19:42:51.648Z,76060.38
2022-11-17T19:45:18.205Z,76062.28
2022-11-17T19:47:44.850Z,76052.66
2022-11-17T19:50:11.720Z,76054.59
2022-11-17T19:52:38.234Z,76048.81
2022-11-17T19:55:04.940Z,76052.66
2022-11-17T19:57:31.895Z,76054.59
2022-11-17T19:59:58.408Z,76041.09
2022-11-17T20:02:24.910Z,76043.03
2022-11-17T20:04:51.550Z,76054.59
2022-11-17T20:07:18.159Z,76050.72
2022-11-17T20:09:44.725Z,76062.28
2022-11-17T20:12:11.550Z,76054.59
2022-11-17T20:14:38.211Z,76058.44
2022-11-17T20:17:04.779Z,76064.22
2022-11-17T20:19:31.302Z,76066.13
2022-11-17T20:21:57.958Z,76062.28
2022-11-17T20:24:24.464Z,76056.50
2022-11-17T20:26:51.103Z,76058.44
2022-11-17T20:29:17.943Z,76054.59
2022-11-17T20:31:44.797Z,76043.03
2022-11-17T20:34:12.105Z,76046.88
2022-11-17T20:36:38.810Z,76043.03
2022-11-17T20:39:06.560Z,76043.03
2022-11-17T20:41:33.315Z,76043.03
2022-11-17T20:44:00.607Z,76041.09
2022-11-17T20:46:27.463Z,76031.47
2022-11-17T20:48:54.350Z,76021.81
2022-11-17T20:51:21.944Z,76017.97
2022-11-17T20:53:48.555Z,76014.13
2022-11-17T20:56:16.326Z,76008.34
2022-11-17T20:58:42.965Z,76010.25
2022-11-17T21:01:17.014Z,76010.25
2022-11-17T21:03:44.093Z,76008.34
2022-11-17T21:06:11.104Z,75996.78
2022-11-17T21:08:38.398Z,75987.16
2022-11-17T21:11:06.545Z,75979.44
2022-11-17T21:13:33.702Z,75981.38
2022-11-17T21:16:10.578Z,75983.28
2022-11-17T21:18:38.365Z,75979.44
2022-11-17T21:21:08.798Z,75977.50
2022-11-17T21:23:36.391Z,75973.66
2022-11-17T21:26:06.961Z,75969.81
2022-11-17T21:28:34.375Z,75973.66
2022-11-17T21:31:05.523Z,75973.66
2022-11-17T21:33:32.049Z,75969.81
2022-11-17T21:36:02.501Z,75977.50
2022-11-17T21:38:30.109Z,75981.38
2022-11-17T21:41:01.210Z,75977.50
2022-11-17T21:43:27.753Z,75962.09
2022-11-17T21:45:54.465Z,75960.16
2022-11-17T21:48:21.162Z,75946.69
2022-11-17T21:50:47.691Z,75946.69
2022-11-17T21:53:14.236Z,75885.03
2022-11-17T21:55:40.772Z,75904.28
2022-11-17T21:58:07.349Z,75912.00
2022-11-17T22:00:33.965Z,75913.94
2022-11-17T22:03:00.608Z,75917.78
2022-11-17T22:05:27.166Z,75912.00
2022-11-17T22:07:53.778Z,75912.00
2022-11-17T22:10:20.335Z,75915.84
2022-11-17T22:12:46.835Z,75915.84
2022-11-17T22:15:13.401Z,75917.78
2022-11-17T22:17:39.887Z,75908.16
2022-11-17T22:20:06.767Z,75915.84
2022-11-17T22:22:33.640Z,75927.41
2022-11-17T22:25:16.769Z,75919.72
2022-11-17T22:27:46.684Z,75915.84
2022-11-17T22:30:13.427Z,75908.16
2022-11-17T22:32:45.021Z,75902.38
2022-11-17T22:35:11.920Z,75900.44
2022-11-17T22:37:38.568Z,75894.66
2022-11-17T22:40:05.412Z,75894.66
2022-11-17T22:42:32.002Z,75888.88
2022-11-17T22:44:58.835Z,75885.03
2022-11-17T22:47:25.386Z,75881.19
2022-11-17T22:49:52.037Z,75892.75
2022-11-17T22:52:18.651Z,75890.81
2022-11-17T22:54:45.213Z,75892.75
2022-11-17T22:57:11.817Z,75888.88
2022-11-17T22:59:38.639Z,75881.19
2022-11-17T23:02:05.535Z,75881.19
2022-11-17T23:04:32.014Z,75867.69
2022-11-17T23:06:58.629Z,75865.75
2022-11-17T23:09:25.223Z,75848.44
2022-11-17T23:11:53.072Z,75854.22
2022-11-17T23:14:19.623Z,75858.06
2022-11-17T23:16:46.201Z,75846.50
2022-11-17T23:19:13.578Z,75854.22
2022-11-17T23:21:40.404Z,75859.97
2022-11-17T23:24:09.561Z,75865.75
2022-11-17T23:26:36.381Z,75875.41
2022-11-17T23:29:02.963Z,75877.31
2022-11-17T23:31:29.562Z,75869.63
2022-11-17T23:33:56.278Z,75867.69
2022-11-17T23:36:23.243Z,75865.75
2022-11-17T23:38:50.346Z,75863.84
2022-11-17T23:41:19.504Z,75861.91
2022-11-17T23:43:46.035Z,75854.22
2022-11-17T23:46:13.897Z,75854.22
2022-11-17T23:48:41.053Z,75844.56
2022-11-17T23:51:11.468Z,75840.72
2022-11-17T23:53:38.560Z,75838.78
2022-11-17T23:56:05.869Z,75840.72
2022-11-17T23:58:32.535Z,75836.88
